( Please enter dates as April 23, 2009 or 04/23/2009 )
 
Auction Title   Price Status Notes Date Ended
1395503 TV ~X~ LMR-30-137   Click to see pictures $163.00  Sold   Aug 13, 2015 1:09:28 PM MDT
1394570 LAPTOP ~X~ LFB-13-169   Click to see pictures $17.50  Sold   Aug 13, 2015 1:09:58 PM MDT
1391794 ASSORTED SHELVING UNITS ~ 46A1   Click to see pictures $330.00  Sold   Aug 13, 2015 1:45:12 PM MDT
1408772 TABLET W/CHARGER ~ RMY-13-70   Click to see pictures $23.01  Sold   Aug 17, 2015 9:04:25 AM MDT
1408773 TABLET W/CHARGER ~ RMY-13-71   Click to see pictures $26.00  Sold   Aug 17, 2015 9:04:38 AM MDT
1408770 TABLET W/CHARGER ~ RMY-13-68   Click to see pictures $26.00  Sold   Aug 17, 2015 10:00:00 AM MDT
1408771 TABLET W/CHARGER ~ RMY-13-69   Click to see pictures $26.00  Sold   Aug 17, 2015 10:00:00 AM MDT
1412610 CHAIR ~ MY-19-50   Internal Item Click to see pictures $0.00  Sold internally   Aug 17, 2015 10:12:51 AM MDT
1412577 CHAIR ~ MY-19-21   Internal Item Click to see pictures $0.00  Sold internally   Aug 17, 2015 10:13:47 AM MDT
1412578 CHAIR ~ MY-19-22   Internal Item Click to see pictures $0.00  Sold internally   Aug 17, 2015 10:14:40 AM MDT
1412589 CHAIR ~ MY-19-33   Internal Item Click to see pictures $0.00  Sold internally   Aug 17, 2015 10:15:32 AM MDT
1412586 CHAIR ~ MY-19-30   Internal Item Click to see pictures $0.00  Sold internally   Aug 17, 2015 10:16:25 AM MDT
1412653 MONITOR ~ MY-21-17   Click to see pictures $1.00  Not sold   Aug 17, 2015 10:18:58 AM MDT
1414104 MONITOR ~ MY-26-19   Click to see pictures $1.00  Not sold   Aug 17, 2015 10:20:40 AM MDT
1414105 MONITOR ~ MY-26-20   Click to see pictures $1.00  Not sold   Aug 17, 2015 10:21:44 AM MDT
1408769 TABLET W/CHARGER ~ RMY-13-67   Click to see pictures $31.00  Sold   Aug 17, 2015 12:02:59 PM MDT
1408768 TABLET W/CHARGER ~ RMY-13-66   Click to see pictures $31.00  Sold   Aug 17, 2015 12:03:06 PM MDT
1408767 TABLET W/CHARGER ~ RMY-13-48   Click to see pictures $27.50  Sold   Aug 17, 2015 1:00:00 PM MDT
1424445 CHAIR ~ MY-6-15   Click to see pictures $4.25  Sold   Aug 17, 2015 1:00:00 PM MDT
1412605 CHAIR ~ MY-19-44   Internal Item Click to see pictures $0.00  Sold internally   Aug 18, 2015 11:41:29 AM MDT
1412585 CHAIR ~ MY-19-29   Internal Item Click to see pictures $0.00  Sold internally   Aug 18, 2015 11:41:52 AM MDT
1412603 CHAIR ~ MY-19-42   Internal Item Click to see pictures $0.00  Sold internally   Aug 18, 2015 11:42:15 AM MDT
1412581 CHAIR ~ MY-19-25   Internal Item Click to see pictures $0.00  Sold internally   Aug 18, 2015 11:42:38 AM MDT
1397352 PROTIMETER ~X~ LAP-9-100   Click to see pictures $100.00  Sold   Aug 19, 2015 1:00:00 PM MDT
1397353 HUMIDITY/TEMP PEN~X~LAP-9-101   Click to see pictures $16.50  Not sold   Aug 19, 2015 1:00:00 PM MDT
1397355 HEADPHONES (2 TOTAL) ~X~ LAP-9-106   Click to see pictures $10.50  Sold   Aug 19, 2015 1:00:00 PM MDT
1397357 GPS UNIT ~X~ LAP-9-108   Click to see pictures $8.50  Sold   Aug 19, 2015 1:00:00 PM MDT
1397360 CHARGERS (2 TOTAL) ~X~ LAP-9-111   Click to see pictures $2.25  Sold   Aug 19, 2015 1:00:00 PM MDT
1397361 MEDIA PLAYER ~X~ LAP-9-112   Click to see pictures $26.25  Sold   Aug 19, 2015 1:00:00 PM MDT
1397362 CAMCORDER ~X~ LAP-9-113   Click to see pictures $10.50  Sold   Aug 19, 2015 1:00:00 PM MDT
1397363 RADAR DETECTOR ~X~ LAP-9-114   Click to see pictures $12.50  Sold   Aug 19, 2015 1:00:00 PM MDT
1397364 MEDIA PLAYER ~X~ LAP-9-115   Click to see pictures $8.00  Sold   Aug 19, 2015 1:00:00 PM MDT
1397365 GPS UNIT ~X~ LAP-9-116   Click to see pictures $8.27  Sold   Aug 19, 2015 1:00:00 PM MDT
1397366 GPS UNIT ~X~ LAP-9-117   Click to see pictures $8.50  Sold   Aug 19, 2015 1:00:00 PM MDT
1397367 GPS UNIT ~X~ LAP-9-118   Click to see pictures $15.50  Sold   Aug 19, 2015 1:00:00 PM MDT
1397369 MEDIA PLAYER ~X~ LAP-9-120   Click to see pictures $6.00  Sold   Aug 19, 2015 1:00:00 PM MDT
1397370 GPS UNIT ~X~ LAP-9-121   Click to see pictures $10.50  Sold   Aug 19, 2015 1:00:00 PM MDT
1400973 COMPUTER ~ AP-28-39   Click to see pictures $13.50  Sold   Aug 19, 2015 1:00:00 PM MDT
1400978 PRINTER ~ JA 26-57   Click to see pictures $3.10  Sold   Aug 19, 2015 1:00:00 PM MDT
1401819 TIRES W/RIMS (9 TOTAL) ~ 50C1   Click to see pictures $270.00  Sold   Aug 19, 2015 1:00:00 PM MDT
1401866 COMPUTER ~ MY-11-70   Click to see pictures $16.50  Sold   Aug 19, 2015 1:00:00 PM MDT
1401867 COMPUTER ~ MY-11-71   Click to see pictures $16.50  Sold   Aug 19, 2015 1:00:00 PM MDT
1401868 COMPUTER ~ MY-11-72   Click to see pictures $16.50  Sold   Aug 19, 2015 1:00:00 PM MDT
1401870 COMPUTER ~ MY-11-74   Click to see pictures $26.00  Sold   Aug 19, 2015 1:00:00 PM MDT
1401872 COMPUTER ~ MY-11-76   Click to see pictures $12.50  Sold   Aug 19, 2015 1:00:00 PM MDT
1401874 PRINTER ~ MY-11-78   Click to see pictures $1.00  Sold   Aug 19, 2015 1:00:00 PM MDT
1397356 GPS UNIT ~X~ LAP-9-107   Click to see pictures $10.00  Sold   Aug 19, 2015 1:01:10 PM MDT
1397359 MEDIA PLAYER ~X~ LAP-9-110   Click to see pictures $20.50  Sold   Aug 19, 2015 1:02:11 PM MDT
1397354 MEDIA PLAYER ~X~ LAP-9-105   Click to see pictures $20.50  Sold   Aug 19, 2015 1:02:18 PM MDT
1397349 RADAR DETECTOR ~X~ LAP-9-102   Click to see pictures $20.50  Sold   Aug 19, 2015 1:02:51 PM MDT
 
« ‹ Prev   1 2 3 4 5 6   Next »
Computer Translation: [Hide | Show]
 
Customer Support: support@publicsurplus.com | Copyright 1999-2015 The Public Group, LLC. | All rights reserved.
{missing:thePublicGroup}